Time;durP1;ratioP1;P1;durP2;ratioP2;P2;SDS_P1;SDS_P2;PMS_P1;PMS_P2;Temp;Humidity;BMP_temperature;BMP_pressure;BME280_temperature;BME280_humidity;BME280_pressure;Samples;Min_cycle;Max_cycle;Signal;HPM_P1;HPM_P2
2023/11/06 00:00:18;;;;;;;2.00;1.80;;;19.90;57.40;;;;;;5040147;28;20033;-34
2023/11/06 00:02:45;;;;;;;2.03;1.70;;;19.90;57.40;;;;;;5038159;28;20168;-34
2023/11/06 00:05:11;;;;;;;;;;;19.90;57.40;;;;;;5044114;28;20073;-34
2023/11/06 00:07:37;;;;;;;2.35;1.73;;;19.80;57.30;;;;;;5043109;28;19912;-35
2023/11/06 00:10:04;;;;;;;1.90;1.80;;;19.80;57.30;;;;;;5035045;28;20034;-35
2023/11/06 00:12:33;;;;;;;1.85;1.75;;;19.80;57.30;;;;;;5041528;28;20026;-34
2023/11/06 00:14:59;;;;;;;2.08;1.85;;;19.80;57.30;;;;;;5035728;28;20537;-35
2023/11/06 00:17:25;;;;;;;1.75;1.65;;;19.80;57.30;;;;;;5062215;28;20032;-35
2023/11/06 00:19:51;;;;;;;2.85;1.90;;;19.80;57.40;;;;;;5095349;28;20040;-34
2023/11/06 00:22:17;;;;;;;2.10;1.90;;;19.70;57.30;;;;;;5097896;28;20032;-35
2023/11/06 00:24:44;;;;;;;2.58;2.15;;;19.70;57.30;;;;;;5103574;28;20397;-34
2023/11/06 00:27:10;;;;;;;2.15;1.90;;;19.70;57.30;;;;;;5093479;28;20036;-35
2023/11/06 00:29:36;;;;;;;1.90;1.80;;;19.70;57.30;;;;;;5088007;28;20058;-35
2023/11/06 00:32:03;;;;;;;2.13;1.93;;;19.70;57.30;;;;;;5097129;28;20319;-35
2023/11/06 00:34:29;;;;;;;2.30;2.10;;;19.70;57.40;;;;;;5098240;28;20127;-35
2023/11/06 00:36:55;;;;;;;2.25;2.05;;;19.70;57.40;;;;;;5103375;28;20092;-35
2023/11/06 00:39:22;;;;;;;3.20;2.25;;;19.70;57.40;;;;;;5097840;28;20507;-34
2023/11/06 00:41:48;;;;;;;3.72;2.10;;;19.60;57.40;;;;;;5093420;28;20085;-34
2023/11/06 00:44:15;;;;;;;2.00;1.80;;;19.60;57.40;;;;;;5098384;28;20044;-34
2023/11/06 00:46:41;;;;;;;2.35;2.15;;;19.60;57.40;;;;;;5103344;28;20091;-34
2023/11/06 00:49:08;;;;;;;1.80;1.70;;;19.60;57.40;;;;;;5099391;28;20041;-34
2023/11/06 00:51:34;;;;;;;;;;;19.60;57.40;;;;;;5094331;28;20051;-34
2023/11/06 00:54:00;;;;;;;2.45;2.00;;;19.60;57.40;;;;;;5096803;28;19908;-34
2023/11/06 00:56:26;;;;;;;2.13;1.92;;;19.50;57.40;;;;;;5103705;28;20091;-33
2023/11/06 00:58:52;;;;;;;2.42;2.22;;;19.50;57.40;;;;;;5094148;28;20024;-34
2023/11/06 01:01:18;;;;;;;2.30;2.10;;;19.50;57.50;;;;;;5093001;28;20062;-34
2023/11/06 01:03:45;;;;;;;2.42;2.22;;;19.50;57.50;;;;;;5094910;28;20040;-33
2023/11/06 01:06:12;;;;;;;2.78;2.30;;;19.50;57.50;;;;;;5096623;28;20039;-34
2023/11/06 01:08:39;;;;;;;2.47;2.28;;;19.50;58.10;;;;;;5100338;28;20044;-34
2023/11/06 01:11:05;;;;;;;2.03;1.92;;;19.50;57.50;;;;;;5092770;28;20505;-34
2023/11/06 01:13:32;;;;;;;2.37;2.17;;;19.40;57.50;;;;;;5099854;28;20040;-34
2023/11/06 01:15:59;;;;;;;2.67;2.47;;;19.40;57.50;;;;;;5101527;28;20025;-34
2023/11/06 01:18:26;;;;;;;2.15;1.95;;;19.40;57.50;;;;;;5096854;28;20365;-33
2023/11/06 01:20:52;;;;;;;2.08;1.88;;;19.40;57.50;;;;;;5093604;28;20500;-33
2023/11/06 01:23:18;;;;;;;2.45;2.25;;;19.40;58.20;;;;;;5092747;28;20035;-34
2023/11/06 01:25:46;;;;;;;2.58;2.38;;;19.40;57.60;;;;;;5098895;28;20058;-34
2023/11/06 01:28:12;;;;;;;2.28;2.08;;;19.40;57.60;;;;;;5092167;28;20036;-34
2023/11/06 01:30:38;;;;;;;2.65;2.40;;;19.40;57.70;;;;;;5092982;28;20051;-34
2023/11/06 01:33:05;;;;;;;2.38;2.15;;;19.30;57.60;;;;;;5086177;28;20054;-34
2023/11/06 01:35:32;;;;;;;2.05;1.85;;;19.30;57.70;;;;;;5093752;28;20032;-34
2023/11/06 01:37:58;;;;;;;;;;;19.30;57.70;;;;;;5094732;28;20025;-34
2023/11/06 01:40:24;;;;;;;2.63;2.42;;;19.30;57.70;;;;;;5092163;28;19908;-34
2023/11/06 01:42:53;;;;;;;2.80;2.40;;;19.30;57.80;;;;;;5091741;28;20096;-34
2023/11/06 01:45:19;;;;;;;2.38;2.05;;;19.30;57.80;;;;;;5093480;28;20045;-34
2023/11/06 01:47:47;;;;;;;2.33;2.13;;;19.20;57.80;;;;;;5100540;28;20028;-34
2023/11/06 01:50:13;;;;;;;;;;;19.20;57.90;;;;;;5097021;28;20047;-34
2023/11/06 01:52:39;;;;;;;2.47;2.28;;;19.20;57.80;;;;;;5095371;28;20404;-34
2023/11/06 01:55:06;;;;;;;2.70;2.50;;;19.20;57.90;;;;;;5094268;28;20067;-33
2023/11/06 01:57:33;;;;;;;2.72;2.28;;;19.20;57.90;;;;;;5094435;28;20067;-33
2023/11/06 01:59:59;;;;;;;2.80;2.60;;;19.10;57.90;;;;;;5092744;28;20033;-34
2023/11/06 02:02:27;;;;;;;2.60;2.40;;;19.10;57.90;;;;;;5085454;28;20070;-34
2023/11/06 02:04:54;;;;;;;2.67;2.47;;;19.10;58.00;;;;;;5085006;28;20039;-34
2023/11/06 02:07:20;;;;;;;2.92;2.72;;;19.10;58.00;;;;;;5092598;28;20047;-34
2023/11/06 02:09:47;;;;;;;2.58;2.25;;;19.00;58.00;;;;;;5099798;28;20055;-34
2023/11/06 02:12:13;;;;;;;3.38;2.72;;;19.00;58.10;;;;;;5090950;28;20101;-35
2023/11/06 02:14:57;;;;;;;2.72;2.40;;;19.00;58.10;;;;;;5092399;28;20044;-35
2023/11/06 02:17:25;;;;;;;2.50;2.30;;;19.00;58.10;;;;;;5098389;28;20557;-35
2023/11/06 02:19:52;;;;;;;2.53;2.30;;;19.00;58.20;;;;;;5099824;28;20028;-35
2023/11/06 02:22:19;;;;;;;2.90;2.70;;;19.00;58.30;;;;;;5091393;28;20028;-34
2023/11/06 02:24:49;;;;;;;2.60;2.40;;;18.90;58.20;;;;;;5099907;28;20028;-34
2023/11/06 02:27:18;;;;;;;2.80;2.60;;;18.90;58.20;;;;;;5095900;28;20082;-34
2023/11/06 02:29:46;;;;;;;2.78;2.50;;;18.90;58.30;;;;;;5087327;28;20120;-34
2023/11/06 02:32:13;;;;;;;2.55;2.20;;;18.90;58.30;;;;;;5090119;28;20028;-34
2023/11/06 02:34:45;;;;;;;3.13;2.83;;;18.90;58.40;;;;;;5093641;28;20032;-35
2023/11/06 02:37:11;;;;;;;2.80;2.60;;;18.80;58.30;;;;;;5094317;28;20040;-34
2023/11/06 02:39:38;;;;;;;2.65;2.45;;;18.80;58.30;;;;;;5093701;28;20130;-34
2023/11/06 02:42:05;;;;;;;2.72;2.53;;;18.80;58.40;;;;;;5087470;28;20028;-34
2023/11/06 02:44:32;;;;;;;2.75;2.55;;;18.80;58.40;;;;;;5094290;28;20040;-33
2023/11/06 02:46:58;;;;;;;3.47;3.08;;;18.80;58.50;;;;;;5092060;28;20043;-35
2023/11/06 02:49:25;;;;;;;2.60;2.40;;;18.80;58.50;;;;;;5097389;28;20040;-35
2023/11/06 02:51:52;;;;;;;3.28;2.97;;;18.70;58.50;;;;;;5099827;28;20038;-35
2023/11/06 02:54:20;;;;;;;3.03;2.70;;;18.70;58.50;;;;;;5095913;28;20036;-33
2023/11/06 02:56:46;;;;;;;3.10;2.80;;;18.70;58.50;;;;;;5093461;28;20027;-34
2023/11/06 02:59:12;;;;;;;2.70;2.50;;;18.70;58.60;;;;;;5084823;28;20024;-34
2023/11/06 03:01:40;;;;;;;3.15;2.85;;;18.70;58.60;;;;;;5090658;28;20054;-34
2023/11/06 03:04:06;;;;;;;;;;;18.60;58.60;;;;;;5095516;28;20028;-34
2023/11/06 03:06:32;;;;;;;3.10;2.80;;;18.60;58.70;;;;;;5101093;28;19912;-34
2023/11/06 03:08:59;;;;;;;3.08;2.78;;;18.60;58.60;;;;;;5087438;28;20028;-33
2023/11/06 03:11:25;;;;;;;3.40;3.10;;;18.60;58.70;;;;;;5101478;28;20028;-34
2023/11/06 03:13:51;;;;;;;3.55;3.00;;;18.60;58.70;;;;;;5100300;28;20042;-34
2023/11/06 03:16:17;;;;;;;2.95;2.70;;;18.60;58.80;;;;;;5097794;28;20032;-35
2023/11/06 03:18:44;;;;;;;3.28;2.97;;;18.60;58.80;;;;;;5098853;28;20061;-34
2023/11/06 03:21:10;;;;;;;2.90;2.70;;;18.50;58.80;;;;;;5097477;28;20039;-34
2023/11/06 03:23:37;;;;;;;3.33;3.00;;;18.50;58.80;;;;;;5091358;28;20090;-34
2023/11/06 03:26:03;;;;;;;3.53;3.17;;;18.50;58.80;;;;;;5091116;28;20096;-34
2023/11/06 03:28:30;;;;;;;3.15;2.92;;;18.50;58.90;;;;;;5091031;28;20304;-34
2023/11/06 03:30:56;;;;;;;3.20;2.90;;;18.50;58.90;;;;;;5093642;28;20043;-33
2023/11/06 03:33:22;;;;;;;3.40;3.10;;;18.40;58.90;;;;;;5101312;28;20024;-34
2023/11/06 03:35:48;;;;;;;4.57;3.15;;;18.40;58.90;;;;;;5092592;28;20047;-34
2023/11/06 03:38:14;;;;;;;2.85;2.65;;;18.40;58.90;;;;;;5101687;28;20114;-33
2023/11/06 03:40:40;;;;;;;4.20;3.00;;;18.40;59.00;;;;;;5099546;28;20040;-36
2023/11/06 03:43:06;;;;;;;2.90;2.70;;;18.40;59.00;;;;;;5099485;28;20036;-33
2023/11/06 03:45:34;;;;;;;3.20;2.90;;;18.40;59.00;;;;;;5100283;28;20141;-34
2023/11/06 03:48:01;;;;;;;4.00;2.88;;;18.30;59.10;;;;;;5100877;28;20054;-34
2023/11/06 03:50:27;;;;;;;3.15;2.85;;;18.30;59.10;;;;;;5094071;28;20040;-34
2023/11/06 03:52:53;;;;;;;2.92;2.72;;;18.30;59.10;;;;;;5085528;28;20107;-33
2023/11/06 03:55:19;;;;;;;3.40;3.10;;;18.30;59.10;;;;;;5094540;28;20044;-33
2023/11/06 03:57:45;;;;;;;3.20;2.90;;;18.30;59.10;;;;;;5100341;28;20056;-34
2023/11/06 04:00:12;;;;;;;3.30;3.00;;;18.30;59.10;;;;;;5084491;28;20032;-34
2023/11/06 04:02:38;;;;;;;3.22;2.92;;;18.30;59.20;;;;;;5092852;28;20032;-33
2023/11/06 04:05:05;;;;;;;3.45;3.15;;;18.20;59.20;;;;;;5091043;28;20495;-34
2023/11/06 04:07:31;;;;;;;;;;;18.20;59.20;;;;;;5086828;28;20025;-34
2023/11/06 04:09:58;;;;;;;3.67;2.92;;;18.20;59.20;;;;;;5100348;28;20012;-34
2023/11/06 04:12:24;;;;;;;3.33;3.03;;;18.20;59.30;;;;;;5101214;28;20032;-34
2023/11/06 04:14:53;;;;;;;3.47;3.05;;;18.20;59.30;;;;;;5100125;28;20032;-34
2023/11/06 04:17:19;;;;;;;3.53;3.22;;;18.20;59.30;;;;;;5099947;28;20028;-34
2023/11/06 04:19:45;;;;;;;3.40;3.10;;;18.20;59.30;;;;;;5099993;28;20032;-34
2023/11/06 04:22:11;;;;;;;3.72;3.38;;;18.10;59.30;;;;;;5096575;28;20089;-34
2023/11/06 04:24:38;;;;;;;3.20;2.90;;;18.10;59.30;;;;;;5099826;28;20035;-33
2023/11/06 04:27:04;;;;;;;3.47;3.17;;;18.10;59.30;;;;;;5095136;28;20036;-34
2023/11/06 04:29:30;;;;;;;3.35;3.05;;;18.10;59.30;;;;;;5101211;28;20280;-34
2023/11/06 04:31:56;;;;;;;3.42;3.13;;;18.10;59.30;;;;;;5101837;28;20040;-33
2023/11/06 04:34:22;;;;;;;3.40;3.10;;;18.10;59.40;;;;;;5093444;28;20094;-34
2023/11/06 04:36:49;;;;;;;3.60;3.30;;;18.00;59.30;;;;;;5100413;28;20027;-33
2023/11/06 04:39:16;;;;;;;3.83;3.42;;;18.00;59.40;;;;;;5099173;28;20032;-34
2023/11/06 04:41:43;;;;;;;3.90;3.60;;;18.00;59.40;;;;;;5101775;28;20036;-34
2023/11/06 04:44:09;;;;;;;3.58;3.28;;;18.00;59.40;;;;;;5096915;28;20036;-34
2023/11/06 04:46:35;;;;;;;3.85;3.50;;;18.00;59.50;;;;;;5103797;28;20036;-34
2023/11/06 04:49:01;;;;;;;3.60;3.30;;;18.00;59.50;;;;;;5104060;28;20104;-34
2023/11/06 04:51:29;;;;;;;3.67;3.38;;;17.90;59.50;;;;;;5097203;28;20039;-34
2023/11/06 04:53:55;;;;;;;4.05;3.65;;;17.90;59.50;;;;;;5096623;28;20029;-34
2023/11/06 04:56:21;;;;;;;4.05;3.58;;;17.90;59.60;;;;;;5096905;28;20032;-34
2023/11/06 04:58:47;;;;;;;4.38;3.75;;;17.90;59.60;;;;;;5102642;28;20035;-34
2023/11/06 05:01:17;;;;;;;4.17;3.77;;;17.90;59.60;;;;;;5091589;28;20043;-34
2023/11/06 05:03:43;;;;;;;3.85;3.47;;;17.90;59.60;;;;;;5101369;28;20123;-34
2023/11/06 05:06:09;;;;;;;4.35;3.35;;;17.90;59.60;;;;;;5103782;28;20024;-34
2023/11/06 05:08:38;;;;;;;3.70;3.40;;;17.80;59.60;;;;;;5103726;28;20024;-34
2023/11/06 05:11:05;;;;;;;4.97;3.50;;;17.80;59.60;;;;;;5096709;28;20043;-33
2023/11/06 05:13:32;;;;;;;3.75;3.35;;;17.80;59.60;;;;;;5103685;28;20024;-34
2023/11/06 05:15:58;;;;;;;3.90;3.60;;;17.80;59.60;;;;;;5094601;28;20039;-33
2023/11/06 05:18:24;;;;;;;3.70;3.40;;;17.80;59.70;;;;;;5103904;28;20499;-34
2023/11/06 05:20:50;;;;;;;3.70;3.40;;;17.80;59.70;;;;;;5102647;28;20031;-34
2023/11/06 05:23:16;;;;;;;4.50;3.67;;;17.80;59.70;;;;;;5096856;28;20047;-33
2023/11/06 05:25:42;;;;;;;4.05;3.65;;;17.70;59.70;;;;;;5094517;28;20161;-33
2023/11/06 05:28:09;;;;;;;3.97;3.50;;;17.70;59.70;;;;;;5096800;28;20111;-34
2023/11/06 05:30:35;;;;;;;4.35;3.88;;;17.70;59.70;;;;;;5095897;28;20063;-34
2023/11/06 05:33:01;;;;;;;4.45;3.47;;;17.70;59.80;;;;;;5096055;28;20020;-33
2023/11/06 05:35:27;;;;;;;4.45;3.90;;;17.70;59.80;;;;;;5103371;28;20057;-35
2023/11/06 05:37:54;;;;;;;4.50;4.10;;;17.70;59.80;;;;;;5095239;28;20095;-34
2023/11/06 05:40:20;;;;;;;3.95;3.47;;;17.70;59.80;;;;;;5097102;28;20032;-34
2023/11/06 05:42:47;;;;;;;5.03;3.72;;;17.60;59.80;;;;;;5093715;28;20099;-33
2023/11/06 05:45:15;;;;;;;4.53;3.90;;;17.60;59.80;;;;;;5093330;28;20037;-34
2023/11/06 05:47:41;;;;;;;3.85;3.38;;;17.60;59.80;;;;;;5091491;28;20048;-34
2023/11/06 05:50:07;;;;;;;3.27;2.97;;;17.60;59.80;;;;;;5093583;28;20050;-33
2023/11/06 05:52:34;;;;;;;4.38;3.83;;;17.60;59.90;;;;;;5085751;28;20303;-33
2023/11/06 05:55:00;;;;;;;4.50;4.05;;;17.50;59.90;;;;;;5085845;28;20036;-34
2023/11/06 05:57:26;;;;;;;4.38;3.97;;;17.60;59.90;;;;;;5096868;28;20124;-35
2023/11/06 05:59:52;;;;;;;4.63;4.22;;;17.50;59.90;;;;;;5093706;28;20028;-35
2023/11/06 06:02:18;;;;;;;4.23;3.83;;;17.50;59.90;;;;;;5085078;28;20036;-34
2023/11/06 06:04:45;;;;;;;4.53;4.13;;;17.50;60.00;;;;;;5094201;28;20024;-34
2023/11/06 06:07:11;;;;;;;4.10;3.75;;;17.50;60.10;;;;;;5091721;28;20036;-34
2023/11/06 06:09:39;;;;;;;4.68;4.20;;;17.50;60.10;;;;;;5085556;28;20182;-34
2023/11/06 06:12:06;;;;;;;4.40;4.00;;;17.50;60.00;;;;;;5096354;28;20035;-35
2023/11/06 06:14:32;;;;;;;4.57;4.18;;;17.40;60.00;;;;;;5102903;28;20058;-34
2023/11/06 06:16:58;;;;;;;4.80;4.40;;;17.40;60.00;;;;;;5093900;28;20053;-34
2023/11/06 06:19:24;;;;;;;4.65;4.25;;;17.40;60.00;;;;;;5089959;28;20043;-35
2023/11/06 06:21:51;;;;;;;4.50;4.10;;;17.40;60.10;;;;;;5091336;28;20032;-35
2023/11/06 06:24:17;;;;;;;4.65;4.10;;;17.40;60.10;;;;;;5090300;28;20035;-35
2023/11/06 06:26:43;;;;;;;4.18;3.78;;;17.40;60.10;;;;;;5092513;28;20091;-35
2023/11/06 06:29:09;;;;;;;4.78;4.32;;;17.30;60.10;;;;;;5091702;28;20036;-34
2023/11/06 06:31:35;;;;;;;4.35;3.95;;;17.30;60.20;;;;;;5084345;28;20062;-34
2023/11/06 06:34:02;;;;;;;4.78;3.85;;;17.30;60.20;;;;;;5085509;28;20036;-34
2023/11/06 06:36:28;;;;;;;4.60;4.20;;;17.30;60.20;;;;;;5092764;28;20051;-34
2023/11/06 06:38:54;;;;;;;4.40;4.00;;;17.30;60.20;;;;;;5093335;28;20514;-34
2023/11/06 06:41:21;;;;;;;5.03;4.53;;;17.30;60.30;;;;;;5101887;28;20043;-35
2023/11/06 06:43:48;;;;;;;4.60;4.20;;;17.30;60.30;;;;;;5085368;28;20059;-35
2023/11/06 06:46:14;;;;;;;4.45;4.05;;;17.20;60.30;;;;;;5087318;28;20035;-34
2023/11/06 06:48:40;;;;;;;4.50;4.10;;;17.20;60.30;;;;;;5093536;28;20084;-34
2023/11/06 06:51:06;;;;;;;4.78;4.10;;;17.20;60.30;;;;;;5084188;28;20039;-34
2023/11/06 06:53:34;;;;;;;4.68;4.22;;;17.20;60.30;;;;;;5091172;28;20035;-34
2023/11/06 06:56:00;;;;;;;;;;;17.20;60.40;;;;;;5091713;28;20036;-34
2023/11/06 06:58:26;;;;;;;4.43;4.03;;;17.20;60.40;;;;;;5091014;28;19908;-34
2023/11/06 07:00:53;;;;;;;4.50;4.10;;;17.10;60.40;;;;;;5093288;28;20027;-34
2023/11/06 07:03:19;;;;;;;3.60;3.27;;;17.10;61.20;;;;;;5101689;28;20140;-34
2023/11/06 07:05:47;;;;;;;4.88;4.30;;;17.10;60.50;;;;;;5086654;28;20028;-34
2023/11/06 07:08:32;;;;;;;5.45;4.70;;;17.10;61.30;;;;;;5048507;28;20056;-34
2023/11/06 07:10:58;;;;;;;4.88;4.47;;;17.10;60.60;;;;;;5054632;28;20048;-34
2023/11/06 07:13:24;;;;;;;4.82;4.43;;;17.00;60.60;;;;;;5059842;28;20045;-34
2023/11/06 07:15:50;;;;;;;4.57;4.10;;;17.00;60.60;;;;;;5045069;28;20045;-34
2023/11/06 07:18:18;;;;;;;4.60;3.67;;;17.10;61.00;;;;;;5054749;28;20101;-34
2023/11/06 07:20:45;;;;;;;4.55;4.15;;;17.10;61.20;;;;;;5049283;28;20044;-34
2023/11/06 07:23:11;;;;;;;4.68;4.18;;;17.20;61.20;;;;;;5048625;28;20041;-34
2023/11/06 07:25:38;;;;;;;4.68;4.22;;;17.10;61.10;;;;;;5042172;28;20029;-34
2023/11/06 07:28:04;;;;;;;4.40;4.00;;;17.10;61.10;;;;;;5041568;28;20029;-34
2023/11/06 07:30:31;;;;;;;4.90;4.40;;;17.10;61.10;;;;;;5041826;28;20495;-34
2023/11/06 07:32:57;;;;;;;4.90;4.32;;;17.10;61.20;;;;;;5042668;28;20074;-33
2023/11/06 07:35:23;;;;;;;4.43;3.75;;;17.00;61.10;;;;;;5047837;28;20155;-34
2023/11/06 07:37:49;;;;;;;5.35;4.22;;;17.00;61.10;;;;;;5056718;28;20550;-34
2023/11/06 07:40:16;;;;;;;5.70;3.40;;;17.00;61.10;;;;;;5053914;28;20545;-33
2023/11/06 07:42:42;;;;;;;3.88;3.53;;;17.00;61.30;;;;;;5049029;28;20037;-33
2023/11/06 07:45:09;;;;;;;3.97;3.57;;;17.10;61.60;;;;;;5070714;28;20040;-33
2023/11/06 07:47:36;;;;;;;4.03;3.63;;;17.20;61.70;;;;;;5086978;28;20087;-34
2023/11/06 07:50:06;;;;;;;3.90;3.50;;;17.10;61.50;;;;;;5092155;28;20549;-34
2023/11/06 07:52:32;;;;;;;3.72;3.42;;;17.10;61.40;;;;;;5094413;28;20126;-34
2023/11/06 07:54:58;;;;;;;4.30;3.90;;;17.10;61.50;;;;;;5097881;28;20101;-34
2023/11/06 07:57:24;;;;;;;4.13;3.80;;;17.00;61.40;;;;;;5094290;28;20034;-34
2023/11/06 07:59:54;;;;;;;3.70;3.40;;;17.00;61.40;;;;;;5101983;28;20059;-34
2023/11/06 08:02:21;;;;;;;3.70;3.40;;;17.00;61.40;;;;;;5094584;28;20055;-33
2023/11/06 08:04:47;;;;;;;4.28;3.88;;;17.00;61.60;;;;;;5088232;28;20063;-34
2023/11/06 08:07:13;;;;;;;3.95;3.55;;;17.10;61.80;;;;;;5095535;28;20552;-33
2023/11/06 08:09:39;;;;;;;4.55;4.13;;;17.20;61.80;;;;;;5104099;28;20091;-33
2023/11/06 08:12:11;;;;;;;4.00;3.60;;;17.10;61.60;;;;;;5098527;28;20028;-33
2023/11/06 08:14:37;;;;;;;4.60;3.45;;;17.10;61.60;;;;;;5104221;28;20083;-33
2023/11/06 08:17:04;;;;;;;4.57;3.88;;;17.10;62.30;;;;;;5104780;28;20052;-34
2023/11/06 08:19:30;;;;;;;4.20;3.80;;;17.10;61.70;;;;;;5105127;28;20051;-34
2023/11/06 08:22:20;;;;;;;4.40;3.78;;;17.00;61.50;;;;;;5093627;28;20028;-34
2023/11/06 08:24:46;;;;;;;3.55;3.25;;;17.00;61.50;;;;;;5041512;28;20404;-34
2023/11/06 08:27:12;;;;;;;3.50;3.20;;;17.10;61.90;;;;;;5043474;28;20141;-34
2023/11/06 08:29:44;;;;;;;3.63;3.33;;;17.20;62.00;;;;;;5042919;28;20053;-33
2023/11/06 08:32:14;;;;;;;4.28;3.88;;;17.20;61.90;;;;;;5037267;28;20018;-33
2023/11/06 08:34:41;;;;;;;3.60;3.28;;;17.10;61.70;;;;;;5043021;28;20155;-33
2023/11/06 08:37:11;;;;;;;4.05;3.65;;;17.10;61.70;;;;;;5043260;28;20056;-35
2023/11/06 08:39:43;;;;;;;4.10;3.70;;;17.10;61.80;;;;;;5042696;28;20092;-34
2023/11/06 08:42:13;;;;;;;3.85;3.55;;;17.00;61.70;;;;;;5026266;28;20045;-34
2023/11/06 08:44:43;;;;;;;5.32;3.65;;;17.00;61.70;;;;;;5024878;28;20096;-34
2023/11/06 08:47:12;;;;;;;4.00;3.60;;;17.00;62.50;;;;;;5023553;28;20160;-34
2023/11/06 08:49:38;;;;;;;3.50;3.20;;;17.00;61.90;;;;;;5022863;28;20038;-34
2023/11/06 08:52:05;;;;;;;3.78;3.22;;;17.20;62.10;;;;;;5023318;28;20049;-35
2023/11/06 08:54:31;;;;;;;3.80;3.40;;;17.20;62.00;;;;;;5023467;28;20034;-33
2023/11/06 08:56:58;;;;;;;4.25;3.70;;;17.20;61.90;;;;;;5023290;28;20538;-34
2023/11/06 08:59:24;;;;;;;2.87;2.67;;;17.10;61.80;;;;;;5023035;28;20036;-34
2023/11/06 09:01:51;;;;;;;4.32;3.92;;;17.10;61.80;;;;;;5042882;28;20045;-37
2023/11/06 09:04:18;;;;;;;4.47;3.50;;;17.10;61.90;;;;;;5066965;28;20059;-35
2023/11/06 09:06:44;;;;;;;4.05;3.65;;;17.00;61.80;;;;;;5074191;28;20124;-34
2023/11/06 09:09:13;;;;;;;4.10;3.38;;;17.00;61.90;;;;;;5075552;28;20093;-34
2023/11/06 09:11:40;;;;;;;3.38;3.05;;;17.10;62.10;;;;;;5067833;28;20052;-34
2023/11/06 09:14:08;;;;;;;3.33;3.03;;;17.20;62.00;;;;;;5077303;28;20024;-34
2023/11/06 09:16:38;;;;;;;3.45;3.15;;;17.20;61.90;;;;;;5075397;28;20039;-34
2023/11/06 09:19:05;;;;;;;3.40;3.10;;;17.10;61.90;;;;;;5062442;28;20042;-33
2023/11/06 09:21:31;;;;;;;;;;;17.10;61.90;;;;;;5073128;28;20037;-34
2023/11/06 09:23:57;;;;;;;3.70;3.40;;;17.10;61.90;;;;;;5068327;28;19908;-34
2023/11/06 09:26:23;;;;;;;4.18;3.53;;;17.10;61.90;;;;;;5082657;28;20035;-34
2023/11/06 09:28:50;;;;;;;3.80;3.35;;;17.00;61.90;;;;;;5073809;28;20405;-34
2023/11/06 09:31:20;;;;;;;3.53;3.10;;;17.10;62.10;;;;;;5073150;28;20068;-34
2023/11/06 09:33:50;;;;;;;4.25;3.25;;;17.20;62.30;;;;;;5073562;28;20055;-34
2023/11/06 09:36:17;;;;;;;3.40;3.10;;;17.20;62.00;;;;;;5083902;28;20040;-33
2023/11/06 09:38:43;;;;;;;3.80;3.40;;;17.20;62.00;;;;;;5074087;28;20054;-34
2023/11/06 09:41:11;;;;;;;3.50;3.17;;;17.20;62.00;;;;;;5072147;28;20067;-33
2023/11/06 09:43:39;;;;;;;3.67;3.38;;;17.10;61.90;;;;;;5078589;28;20048;-34
2023/11/06 09:46:09;;;;;;;4.18;3.40;;;17.10;62.00;;;;;;5074489;28;20033;-34
2023/11/06 09:48:35;;;;;;;3.65;3.28;;;17.10;61.90;;;;;;5050981;28;20032;-33
2023/11/06 09:51:11;;;;;;;3.50;3.20;;;17.00;61.90;;;;;;5060557;28;20040;-33
2023/11/06 09:53:41;;;;;;;3.42;3.10;;;17.10;62.20;;;;;;5085191;28;20032;-34
2023/11/06 09:56:10;;;;;;;3.50;3.20;;;17.20;62.30;;;;;;5072363;28;20039;-34
2023/11/06 09:58:39;;;;;;;3.17;2.88;;;17.20;62.10;;;;;;5080639;28;20040;-33
2023/11/06 10:01:08;;;;;;;3.80;3.38;;;17.20;62.10;;;;;;5068183;28;20033;-33
2023/11/06 10:03:38;;;;;;;4.40;3.50;;;17.20;62.00;;;;;;5074924;28;20734;-34
2023/11/06 10:06:05;;;;;;;3.80;3.50;;;17.10;62.00;;;;;;5065137;28;20059;-33
2023/11/06 10:08:32;;;;;;;4.05;3.50;;;17.10;62.00;;;;;;5083539;28;20040;-33
2023/11/06 10:10:59;;;;;;;;;;;17.10;62.00;;;;;;5072104;28;20075;-34
2023/11/06 10:13:25;;;;;;;3.53;3.22;;;17.00;61.90;;;;;;5066890;28;20235;-34
2023/11/06 10:15:52;;;;;;;3.65;2.95;;;17.10;62.30;;;;;;5072132;28;20017;-35
2023/11/06 10:18:19;;;;;;;3.40;3.10;;;17.20;62.20;;;;;;5076800;28;20040;-34
2023/11/06 10:20:47;;;;;;;;;;;17.20;62.10;;;;;;5072877;28;20032;-34
2023/11/06 10:23:26;;;;;;;3.80;3.40;;;17.20;62.00;;;;;;5072230;28;19915;-34
2023/11/06 10:25:53;;;;;;;3.47;3.13;;;17.10;62.00;;;;;;5070641;28;20092;-34
2023/11/06 10:28:19;;;;;;;3.72;3.40;;;17.10;62.00;;;;;;5071315;28;20795;-34
2023/11/06 10:30:47;;;;;;;4.23;3.67;;;17.10;62.00;;;;;;5064649;28;20056;-34
2023/11/06 10:33:13;;;;;;;3.33;3.03;;;17.10;62.00;;;;;;5064508;28;20033;-34
2023/11/06 10:35:40;;;;;;;3.60;3.05;;;17.10;62.20;;;;;;5066843;28;20094;-35
2023/11/06 10:38:06;;;;;;;3.30;3.00;;;17.20;62.30;;;;;;5064983;28;20032;-34
2023/11/06 10:40:32;;;;;;;4.88;3.60;;;17.20;62.10;;;;;;5064782;28;20036;-34
2023/11/06 10:42:59;;;;;;;3.88;3.47;;;17.20;62.00;;;;;;5069726;28;20041;-34
2023/11/06 10:45:29;;;;;;;3.85;3.45;;;17.20;62.00;;;;;;5069267;28;20115;-34
2023/11/06 10:47:57;;;;;;;4.35;3.30;;;17.10;62.00;;;;;;5036165;28;20037;-34
2023/11/06 10:50:26;;;;;;;3.97;3.40;;;17.10;62.00;;;;;;5052552;28;20044;-34
2023/11/06 10:52:59;;;;;;;4.00;3.60;;;17.10;62.00;;;;;;5074554;28;20121;-34
2023/11/06 10:55:25;;;;;;;3.42;3.13;;;17.10;62.20;;;;;;5075071;28;20029;-33
2023/11/06 10:57:52;;;;;;;3.37;3.03;;;17.20;62.20;;;;;;5054252;28;20033;-34
2023/11/06 11:00:20;;;;;;;3.58;3.28;;;17.20;62.00;;;;;;5046252;28;20280;-33
2023/11/06 11:02:56;;;;;;;3.38;3.08;;;17.20;61.90;;;;;;5070922;28;20032;-34
2023/11/06 11:05:28;;;;;;;3.50;3.20;;;17.20;62.00;;;;;;5078613;28;20086;-34
2023/11/06 11:07:55;;;;;;;3.75;3.35;;;17.10;62.00;;;;;;5068372;28;20035;-34
2023/11/06 11:10:27;;;;;;;4.97;3.35;;;17.10;62.00;;;;;;5068000;28;20692;-34
2023/11/06 11:12:55;;;;;;;3.92;3.40;;;17.10;62.00;;;;;;5067002;28;20050;-34
2023/11/06 11:15:26;;;;;;;3.92;3.20;;;17.00;61.90;;;;;;5057076;28;20460;-34
2023/11/06 11:17:59;;;;;;;3.45;3.15;;;17.10;62.20;;;;;;5080621;28;20750;-34
2023/11/06 11:20:26;;;;;;;3.42;3.13;;;17.20;62.30;;;;;;5068627;28;20535;-34
2023/11/06 11:23:10;;;;;;;3.58;3.28;;;17.20;62.10;;;;;;5077051;28;21953;-34
2023/11/06 11:25:59;;;;;;;3.30;3.00;;;17.20;62.10;;;;;;5069616;28;20068;-34
2023/11/06 11:28:26;;;;;;;3.92;3.50;;;17.20;62.00;;;;;;5070270;28;20112;-34
2023/11/06 11:30:53;;;;;;;4.03;3.50;;;17.10;62.00;;;;;;5071709;28;20068;-34
2023/11/06 11:33:57;;;;;;;3.63;3.33;;;17.10;62.00;;;;;;5075735;28;20036;-34
2023/11/06 11:36:30;;;;;;;3.33;2.80;;;17.10;62.00;;;;;;5051410;28;20036;-34
2023/11/06 11:38:57;;;;;;;3.28;2.97;;;17.10;62.20;;;;;;5070708;28;20029;-34
2023/11/06 11:41:23;;;;;;;3.63;3.33;;;17.30;62.30;;;;;;5070723;28;20025;-34
2023/11/06 11:43:49;;;;;;;3.85;3.45;;;17.30;62.20;;;;;;5062775;28;20044;-34
2023/11/06 11:46:34;;;;;;;3.47;3.17;;;17.20;62.10;;;;;;5094250;28;20028;-34
2023/11/06 11:49:00;;;;;;;3.67;3.25;;;17.20;62.10;;;;;;5097782;28;20038;-34
2023/11/06 11:51:51;;;;;;;3.17;2.85;;;17.10;62.00;;;;;;5083105;28;20375;-34
2023/11/06 11:54:39;;;;;;;4.47;3.45;;;17.10;62.10;;;;;;5087939;28;20042;-34
2023/11/06 11:57:07;;;;;;;3.50;3.17;;;17.10;62.10;;;;;;5097252;28;20127;-34
2023/11/06 11:59:46;;;;;;;3.83;3.20;;;17.00;62.10;;;;;;5091000;28;20048;-34
2023/11/06 12:02:29;;;;;;;3.42;2.95;;;17.20;62.40;;;;;;5095347;28;20028;-34
2023/11/06 12:04:59;;;;;;;3.90;3.47;;;17.30;62.30;;;;;;5095408;28;20029;-34
2023/11/06 12:07:28;;;;;;;3.42;3.13;;;17.20;62.00;;;;;;5090089;28;20047;-34
2023/11/06 12:09:55;;;;;;;3.22;2.92;;;17.20;62.10;;;;;;5091550;28;20099;-34
2023/11/06 12:12:23;;;;;;;3.58;3.25;;;17.10;62.00;;;;;;5089617;28;20029;-34
2023/11/06 12:14:50;;;;;;;4.78;3.95;;;17.10;62.00;;;;;;5082479;28;20021;-34
2023/11/06 12:17:34;;;;;;;4.53;3.53;;;17.10;62.10;;;;;;5093901;28;20050;-34
2023/11/06 12:20:00;;;;;;;3.70;3.30;;;17.10;62.10;;;;;;5097335;28;20037;-34
2023/11/06 12:22:28;;;;;;;3.85;3.17;;;17.20;62.30;;;;;;5097686;28;20036;-34
2023/11/06 12:24:55;;;;;;;3.53;3.05;;;17.20;62.30;;;;;;5095634;28;20123;-33
2023/11/06 12:27:31;;;;;;;4.13;3.72;;;17.20;62.20;;;;;;5087906;28;20107;-34
2023/11/06 12:30:03;;;;;;;3.28;2.97;;;17.20;62.20;;;;;;5092307;28;20083;-34
2023/11/06 12:32:30;;;;;;;3.63;3.08;;;17.20;62.10;;;;;;5097095;28;20110;-33
2023/11/06 12:35:14;;;;;;;3.53;3.22;;;17.10;62.10;;;;;;5099738;28;20079;-34
2023/11/06 12:37:51;;;;;;;3.33;3.03;;;17.10;62.10;;;;;;5092633;28;20108;-34
2023/11/06 12:40:20;;;;;;;3.73;3.37;;;17.20;62.40;;;;;;5093343;28;20056;-34
2023/11/06 12:42:47;;;;;;;3.30;3.00;;;17.20;62.20;;;;;;5090813;28;20035;-34
2023/11/06 12:45:26;;;;;;;3.67;3.38;;;17.20;62.10;;;;;;5092002;28;20054;-33
2023/11/06 12:47:52;;;;;;;3.50;3.03;;;17.20;62.10;;;;;;5089362;28;20122;-34
2023/11/06 12:50:19;;;;;;;3.88;3.45;;;17.20;62.10;;;;;;5097662;28;20032;-33
2023/11/06 12:52:45;;;;;;;3.60;3.30;;;17.10;62.10;;;;;;5103444;28;20432;-34